sensor_id;sensor_type;location;lat;lon;timestamp;P1;durP1;ratioP1;P2;durP2;ratioP2
45049;SDS011;61798;48.048;-1.928;2022-10-16T00:00:20;5.90;;;1.92;;
45049;SDS011;61798;48.048;-1.928;2022-10-16T00:02:26;6.78;;;1.80;;
45049;SDS011;61798;48.048;-1.928;2022-10-16T00:04:32;8.73;;;2.20;;
45049;SDS011;61798;48.048;-1.928;2022-10-16T00:06:38;7.00;;;2.30;;
45049;SDS011;61798;48.048;-1.928;2022-10-16T00:08:46;3.83;;;2.05;;
45049;SDS011;61798;48.048;-1.928;2022-10-16T00:10:52;5.93;;;1.80;;
45049;SDS011;61798;48.048;-1.928;2022-10-16T00:13:03;5.15;;;2.00;;
45049;SDS011;61798;48.048;-1.928;2022-10-16T00:15:10;4.28;;;1.90;;
45049;SDS011;61798;48.048;-1.928;2022-10-16T00:17:15;3.58;;;1.70;;
45049;SDS011;61798;48.048;-1.928;2022-10-16T00:19:22;4.50;;;1.67;;
45049;SDS011;61798;48.048;-1.928;2022-10-16T00:21:30;7.93;;;2.70;;
45049;SDS011;61798;48.048;-1.928;2022-10-16T00:23:37;7.30;;;1.80;;
45049;SDS011;61798;48.048;-1.928;2022-10-16T00:25:43;4.78;;;1.48;;
45049;SDS011;61798;48.048;-1.928;2022-10-16T00:27:49;5.15;;;2.05;;
45049;SDS011;61798;48.048;-1.928;2022-10-16T00:29:55;4.45;;;1.90;;
45049;SDS011;61798;48.048;-1.928;2022-10-16T00:32:04;6.13;;;2.72;;
45049;SDS011;61798;48.048;-1.928;2022-10-16T00:34:10;6.47;;;2.22;;
45049;SDS011;61798;48.048;-1.928;2022-10-16T00:36:17;8.35;;;2.35;;
45049;SDS011;61798;48.048;-1.928;2022-10-16T00:38:25;6.97;;;2.80;;
45049;SDS011;61798;48.048;-1.928;2022-10-16T00:40:31;9.63;;;3.22;;
45049;SDS011;61798;48.048;-1.928;2022-10-16T00:42:37;8.10;;;3.20;;
45049;SDS011;61798;48.048;-1.928;2022-10-16T00:44:47;5.53;;;2.50;;
45049;SDS011;61798;48.048;-1.928;2022-10-16T00:46:57;7.80;;;3.08;;
45049;SDS011;61798;48.048;-1.928;2022-10-16T00:49:08;5.93;;;2.50;;
45049;SDS011;61798;48.048;-1.928;2022-10-16T00:51:16;6.25;;;2.83;;
45049;SDS011;61798;48.048;-1.928;2022-10-16T00:53:27;5.95;;;3.08;;
45049;SDS011;61798;48.048;-1.928;2022-10-16T00:55:33;6.03;;;2.95;;
45049;SDS011;61798;48.048;-1.928;2022-10-16T00:57:39;6.85;;;3.10;;
45049;SDS011;61798;48.048;-1.928;2022-10-16T00:59:45;10.32;;;3.45;;
45049;SDS011;61798;48.048;-1.928;2022-10-16T01:01:51;6.07;;;3.10;;
45049;SDS011;61798;48.048;-1.928;2022-10-16T01:03:58;6.22;;;3.08;;
45049;SDS011;61798;48.048;-1.928;2022-10-16T01:11:06;6.47;;;3.33;;
45049;SDS011;61798;48.048;-1.928;2022-10-16T01:15:47;3.30;;;2.55;;
45049;SDS011;61798;48.048;-1.928;2022-10-16T01:20:51;6.32;;;3.22;;
45049;SDS011;61798;48.048;-1.928;2022-10-16T01:23:27;9.00;;;3.40;;
45049;SDS011;61798;48.048;-1.928;2022-10-16T01:28:06;12.95;;;3.70;;
45049;SDS011;61798;48.048;-1.928;2022-10-16T01:30:25;6.10;;;3.05;;
45049;SDS011;61798;48.048;-1.928;2022-10-16T01:37:48;6.15;;;3.38;;
45049;SDS011;61798;48.048;-1.928;2022-10-16T01:40:00;6.82;;;3.28;;
45049;SDS011;61798;48.048;-1.928;2022-10-16T01:42:09;6.60;;;3.42;;
45049;SDS011;61798;48.048;-1.928;2022-10-16T01:44:21;6.05;;;3.22;;
45049;SDS011;61798;48.048;-1.928;2022-10-16T01:46:34;9.93;;;3.55;;
45049;SDS011;61798;48.048;-1.928;2022-10-16T01:48:44;11.85;;;3.92;;
45049;SDS011;61798;48.048;-1.928;2022-10-16T01:51:05;5.63;;;3.50;;
45049;SDS011;61798;48.048;-1.928;2022-10-16T01:53:14;8.40;;;3.65;;
45049;SDS011;61798;48.048;-1.928;2022-10-16T01:55:28;8.25;;;3.30;;
45049;SDS011;61798;48.048;-1.928;2022-10-16T01:57:39;7.13;;;3.50;;
45049;SDS011;61798;48.048;-1.928;2022-10-16T01:59:50;9.48;;;4.18;;
45049;SDS011;61798;48.048;-1.928;2022-10-16T02:02:00;6.82;;;4.15;;
45049;SDS011;61798;48.048;-1.928;2022-10-16T02:04:20;6.93;;;3.75;;
45049;SDS011;61798;48.048;-1.928;2022-10-16T02:06:30;8.57;;;3.85;;
45049;SDS011;61798;48.048;-1.928;2022-10-16T02:08:36;12.23;;;4.78;;
45049;SDS011;61798;48.048;-1.928;2022-10-16T02:10:42;5.95;;;3.63;;
45049;SDS011;61798;48.048;-1.928;2022-10-16T02:12:50;10.23;;;4.13;;
45049;SDS011;61798;48.048;-1.928;2022-10-16T02:15:11;6.45;;;3.85;;
45049;SDS011;61798;48.048;-1.928;2022-10-16T02:17:17;7.28;;;3.63;;
45049;SDS011;61798;48.048;-1.928;2022-10-16T02:19:24;7.53;;;3.60;;
45049;SDS011;61798;48.048;-1.928;2022-10-16T02:21:32;8.13;;;4.05;;
45049;SDS011;61798;48.048;-1.928;2022-10-16T02:24:13;6.68;;;3.92;;
45049;SDS011;61798;48.048;-1.928;2022-10-16T02:26:40;9.52;;;4.03;;
45049;SDS011;61798;48.048;-1.928;2022-10-16T02:29:10;7.57;;;4.30;;
45049;SDS011;61798;48.048;-1.928;2022-10-16T02:31:25;7.85;;;3.97;;
45049;SDS011;61798;48.048;-1.928;2022-10-16T02:33:34;7.53;;;3.95;;
45049;SDS011;61798;48.048;-1.928;2022-10-16T02:35:44;8.93;;;4.80;;
45049;SDS011;61798;48.048;-1.928;2022-10-16T02:37:52;14.75;;;4.28;;
45049;SDS011;61798;48.048;-1.928;2022-10-16T02:39:59;10.65;;;4.35;;
45049;SDS011;61798;48.048;-1.928;2022-10-16T02:42:10;10.18;;;4.75;;
45049;SDS011;61798;48.048;-1.928;2022-10-16T02:44:17;7.57;;;4.60;;
45049;SDS011;61798;48.048;-1.928;2022-10-16T02:46:23;9.48;;;5.00;;
45049;SDS011;61798;48.048;-1.928;2022-10-16T02:48:29;7.38;;;4.50;;
45049;SDS011;61798;48.048;-1.928;2022-10-16T02:50:35;7.15;;;4.78;;
45049;SDS011;61798;48.048;-1.928;2022-10-16T02:52:41;8.55;;;4.60;;
45049;SDS011;61798;48.048;-1.928;2022-10-16T02:54:46;9.98;;;4.60;;
45049;SDS011;61798;48.048;-1.928;2022-10-16T02:56:52;8.15;;;5.03;;
45049;SDS011;61798;48.048;-1.928;2022-10-16T02:58:58;7.65;;;4.55;;
45049;SDS011;61798;48.048;-1.928;2022-10-16T03:01:04;7.55;;;4.43;;
45049;SDS011;61798;48.048;-1.928;2022-10-16T03:03:10;9.07;;;4.90;;
45049;SDS011;61798;48.048;-1.928;2022-10-16T03:05:16;7.47;;;4.90;;
45049;SDS011;61798;48.048;-1.928;2022-10-16T03:07:22;8.35;;;4.88;;
45049;SDS011;61798;48.048;-1.928;2022-10-16T03:09:28;8.02;;;4.75;;
45049;SDS011;61798;48.048;-1.928;2022-10-16T03:11:34;12.60;;;5.30;;
45049;SDS011;61798;48.048;-1.928;2022-10-16T03:13:40;8.18;;;4.90;;
45049;SDS011;61798;48.048;-1.928;2022-10-16T03:15:46;9.77;;;5.10;;
45049;SDS011;61798;48.048;-1.928;2022-10-16T03:17:52;9.82;;;4.63;;
45049;SDS011;61798;48.048;-1.928;2022-10-16T03:19:58;8.18;;;4.75;;
45049;SDS011;61798;48.048;-1.928;2022-10-16T03:22:04;11.13;;;5.30;;
45049;SDS011;61798;48.048;-1.928;2022-10-16T03:24:10;6.97;;;4.97;;
45049;SDS011;61798;48.048;-1.928;2022-10-16T03:26:16;13.18;;;5.10;;
45049;SDS011;61798;48.048;-1.928;2022-10-16T03:28:22;9.00;;;4.93;;
45049;SDS011;61798;48.048;-1.928;2022-10-16T03:30:28;10.40;;;4.68;;
45049;SDS011;61798;48.048;-1.928;2022-10-16T03:32:34;9.45;;;4.85;;
45049;SDS011;61798;48.048;-1.928;2022-10-16T03:34:40;13.63;;;5.28;;
45049;SDS011;61798;48.048;-1.928;2022-10-16T03:36:46;12.13;;;5.38;;
45049;SDS011;61798;48.048;-1.928;2022-10-16T03:38:52;11.25;;;4.97;;
45049;SDS011;61798;48.048;-1.928;2022-10-16T03:40:57;9.63;;;4.70;;
45049;SDS011;61798;48.048;-1.928;2022-10-16T03:43:03;9.93;;;5.00;;
45049;SDS011;61798;48.048;-1.928;2022-10-16T03:45:10;11.05;;;5.10;;
45049;SDS011;61798;48.048;-1.928;2022-10-16T03:47:16;7.53;;;4.57;;
45049;SDS011;61798;48.048;-1.928;2022-10-16T03:49:26;13.48;;;5.53;;
45049;SDS011;61798;48.048;-1.928;2022-10-16T03:51:31;8.93;;;4.78;;
45049;SDS011;61798;48.048;-1.928;2022-10-16T03:53:37;13.07;;;5.93;;
45049;SDS011;61798;48.048;-1.928;2022-10-16T03:55:44;11.20;;;5.40;;
45049;SDS011;61798;48.048;-1.928;2022-10-16T03:57:50;11.05;;;5.20;;
45049;SDS011;61798;48.048;-1.928;2022-10-16T03:59:56;9.55;;;5.45;;
45049;SDS011;61798;48.048;-1.928;2022-10-16T04:02:02;11.95;;;5.30;;
45049;SDS011;61798;48.048;-1.928;2022-10-16T04:04:08;12.40;;;6.15;;
45049;SDS011;61798;48.048;-1.928;2022-10-16T04:06:14;11.40;;;5.05;;
45049;SDS011;61798;48.048;-1.928;2022-10-16T04:08:20;9.95;;;4.60;;
45049;SDS011;61798;48.048;-1.928;2022-10-16T04:10:26;13.38;;;5.78;;
45049;SDS011;61798;48.048;-1.928;2022-10-16T04:12:32;10.10;;;5.20;;
45049;SDS011;61798;48.048;-1.928;2022-10-16T04:14:37;9.82;;;4.90;;
45049;SDS011;61798;48.048;-1.928;2022-10-16T04:16:43;9.68;;;5.22;;
45049;SDS011;61798;48.048;-1.928;2022-10-16T04:18:49;16.67;;;4.85;;
45049;SDS011;61798;48.048;-1.928;2022-10-16T04:20:55;9.50;;;5.05;;
45049;SDS011;61798;48.048;-1.928;2022-10-16T04:23:01;10.35;;;4.97;;
45049;SDS011;61798;48.048;-1.928;2022-10-16T04:25:08;9.60;;;4.60;;
45049;SDS011;61798;48.048;-1.928;2022-10-16T04:27:14;10.30;;;5.22;;
45049;SDS011;61798;48.048;-1.928;2022-10-16T04:29:20;7.70;;;4.70;;
45049;SDS011;61798;48.048;-1.928;2022-10-16T04:31:26;13.23;;;5.10;;
45049;SDS011;61798;48.048;-1.928;2022-10-16T04:33:32;8.52;;;4.93;;
45049;SDS011;61798;48.048;-1.928;2022-10-16T04:35:38;6.70;;;4.15;;
45049;SDS011;61798;48.048;-1.928;2022-10-16T04:37:44;9.38;;;4.53;;
45049;SDS011;61798;48.048;-1.928;2022-10-16T04:39:50;8.32;;;4.80;;
45049;SDS011;61798;48.048;-1.928;2022-10-16T04:41:57;10.48;;;4.53;;
45049;SDS011;61798;48.048;-1.928;2022-10-16T04:44:02;7.03;;;4.18;;
45049;SDS011;61798;48.048;-1.928;2022-10-16T04:46:08;8.18;;;4.82;;
45049;SDS011;61798;48.048;-1.928;2022-10-16T04:48:15;8.02;;;5.25;;
45049;SDS011;61798;48.048;-1.928;2022-10-16T04:50:21;11.40;;;5.13;;
45049;SDS011;61798;48.048;-1.928;2022-10-16T04:52:27;10.63;;;4.97;;
45049;SDS011;61798;48.048;-1.928;2022-10-16T04:54:33;9.10;;;5.20;;
45049;SDS011;61798;48.048;-1.928;2022-10-16T04:56:39;10.82;;;5.30;;
45049;SDS011;61798;48.048;-1.928;2022-10-16T04:58:52;12.40;;;5.28;;
45049;SDS011;61798;48.048;-1.928;2022-10-16T05:00:57;9.82;;;5.28;;
45049;SDS011;61798;48.048;-1.928;2022-10-16T05:03:04;11.40;;;5.47;;
45049;SDS011;61798;48.048;-1.928;2022-10-16T05:05:12;13.07;;;5.68;;
45049;SDS011;61798;48.048;-1.928;2022-10-16T05:07:19;9.27;;;4.93;;
45049;SDS011;61798;48.048;-1.928;2022-10-16T05:09:25;10.60;;;4.95;;
45049;SDS011;61798;48.048;-1.928;2022-10-16T05:11:31;10.38;;;5.65;;
45049;SDS011;61798;48.048;-1.928;2022-10-16T05:13:37;11.55;;;5.38;;
45049;SDS011;61798;48.048;-1.928;2022-10-16T05:15:46;8.52;;;5.13;;
45049;SDS011;61798;48.048;-1.928;2022-10-16T05:17:53;8.60;;;5.20;;
45049;SDS011;61798;48.048;-1.928;2022-10-16T05:19:59;7.53;;;4.78;;
45049;SDS011;61798;48.048;-1.928;2022-10-16T05:22:05;14.18;;;5.20;;
45049;SDS011;61798;48.048;-1.928;2022-10-16T05:24:11;9.65;;;5.75;;
45049;SDS011;61798;48.048;-1.928;2022-10-16T05:26:17;13.20;;;6.93;;
45049;SDS011;61798;48.048;-1.928;2022-10-16T05:28:24;10.32;;;5.85;;
45049;SDS011;61798;48.048;-1.928;2022-10-16T05:30:31;13.65;;;6.38;;
45049;SDS011;61798;48.048;-1.928;2022-10-16T05:32:37;16.10;;;7.47;;
45049;SDS011;61798;48.048;-1.928;2022-10-16T05:34:43;10.88;;;5.80;;
45049;SDS011;61798;48.048;-1.928;2022-10-16T05:36:49;12.60;;;6.05;;
45049;SDS011;61798;48.048;-1.928;2022-10-16T05:38:55;11.50;;;6.10;;
45049;SDS011;61798;48.048;-1.928;2022-10-16T05:41:02;12.25;;;5.97;;
45049;SDS011;61798;48.048;-1.928;2022-10-16T05:43:09;9.80;;;5.60;;
45049;SDS011;61798;48.048;-1.928;2022-10-16T05:45:15;14.75;;;6.90;;
45049;SDS011;61798;48.048;-1.928;2022-10-16T05:47:21;14.00;;;6.93;;
45049;SDS011;61798;48.048;-1.928;2022-10-16T05:49:27;16.10;;;8.25;;
45049;SDS011;61798;48.048;-1.928;2022-10-16T05:51:33;15.32;;;7.88;;
45049;SDS011;61798;48.048;-1.928;2022-10-16T05:53:39;14.05;;;8.07;;
45049;SDS011;61798;48.048;-1.928;2022-10-16T05:55:51;17.48;;;8.52;;
45049;SDS011;61798;48.048;-1.928;2022-10-16T05:57:58;20.15;;;8.13;;
45049;SDS011;61798;48.048;-1.928;2022-10-16T06:00:04;15.77;;;7.05;;
45049;SDS011;61798;48.048;-1.928;2022-10-16T06:02:14;18.27;;;8.68;;
45049;SDS011;61798;48.048;-1.928;2022-10-16T06:04:20;20.38;;;9.23;;
45049;SDS011;61798;48.048;-1.928;2022-10-16T06:06:26;19.75;;;8.45;;
45049;SDS011;61798;48.048;-1.928;2022-10-16T06:08:33;20.85;;;8.13;;
45049;SDS011;61798;48.048;-1.928;2022-10-16T06:10:39;18.38;;;7.45;;
45049;SDS011;61798;48.048;-1.928;2022-10-16T06:12:46;14.30;;;7.95;;
45049;SDS011;61798;48.048;-1.928;2022-10-16T06:14:53;19.05;;;8.57;;
45049;SDS011;61798;48.048;-1.928;2022-10-16T06:17:00;15.75;;;8.63;;
45049;SDS011;61798;48.048;-1.928;2022-10-16T06:19:07;25.42;;;8.93;;
45049;SDS011;61798;48.048;-1.928;2022-10-16T06:21:16;24.45;;;8.73;;
45049;SDS011;61798;48.048;-1.928;2022-10-16T06:23:27;21.00;;;9.55;;
45049;SDS011;61798;48.048;-1.928;2022-10-16T06:25:33;21.05;;;10.35;;
45049;SDS011;61798;48.048;-1.928;2022-10-16T06:27:40;17.85;;;8.43;;
45049;SDS011;61798;48.048;-1.928;2022-10-16T06:29:47;19.55;;;7.65;;
45049;SDS011;61798;48.048;-1.928;2022-10-16T06:31:54;20.33;;;9.23;;
45049;SDS011;61798;48.048;-1.928;2022-10-16T06:34:02;24.30;;;9.48;;
45049;SDS011;61798;48.048;-1.928;2022-10-16T06:36:13;21.70;;;9.98;;
45049;SDS011;61798;48.048;-1.928;2022-10-16T06:38:22;23.90;;;11.10;;
45049;SDS011;61798;48.048;-1.928;2022-10-16T06:40:28;27.35;;;10.32;;
45049;SDS011;61798;48.048;-1.928;2022-10-16T06:42:36;33.35;;;11.07;;
45049;SDS011;61798;48.048;-1.928;2022-10-16T06:44:43;17.58;;;9.23;;
45049;SDS011;61798;48.048;-1.928;2022-10-16T06:46:49;17.42;;;9.93;;
45049;SDS011;61798;48.048;-1.928;2022-10-16T06:48:56;20.52;;;10.02;;
45049;SDS011;61798;48.048;-1.928;2022-10-16T06:51:09;18.83;;;9.77;;
45049;SDS011;61798;48.048;-1.928;2022-10-16T06:53:18;16.88;;;8.93;;
45049;SDS011;61798;48.048;-1.928;2022-10-16T06:55:25;17.63;;;8.30;;
45049;SDS011;61798;48.048;-1.928;2022-10-16T06:57:30;15.25;;;8.63;;
45049;SDS011;61798;48.048;-1.928;2022-10-16T06:59:37;14.52;;;9.10;;
45049;SDS011;61798;48.048;-1.928;2022-10-16T07:01:45;17.55;;;8.45;;
45049;SDS011;61798;48.048;-1.928;2022-10-16T07:03:52;17.45;;;8.50;;
45049;SDS011;61798;48.048;-1.928;2022-10-16T07:06:03;19.40;;;8.18;;
45049;SDS011;61798;48.048;-1.928;2022-10-16T07:08:11;19.52;;;8.38;;
45049;SDS011;61798;48.048;-1.928;2022-10-16T07:10:18;12.38;;;7.82;;
45049;SDS011;61798;48.048;-1.928;2022-10-16T07:12:25;10.20;;;6.93;;
45049;SDS011;61798;48.048;-1.928;2022-10-16T07:14:33;9.50;;;6.28;;
45049;SDS011;61798;48.048;-1.928;2022-10-16T07:16:40;10.10;;;6.95;;
45049;SDS011;61798;48.048;-1.928;2022-10-16T07:18:47;9.60;;;6.38;;
45049;SDS011;61798;48.048;-1.928;2022-10-16T07:21:02;7.53;;;5.18;;
45049;SDS011;61798;48.048;-1.928;2022-10-16T07:23:09;9.95;;;5.55;;
45049;SDS011;61798;48.048;-1.928;2022-10-16T07:25:16;10.50;;;5.57;;
45049;SDS011;61798;48.048;-1.928;2022-10-16T07:27:23;8.50;;;4.75;;
45049;SDS011;61798;48.048;-1.928;2022-10-16T07:29:31;7.75;;;4.70;;
45049;SDS011;61798;48.048;-1.928;2022-10-16T07:31:38;6.25;;;4.30;;
45049;SDS011;61798;48.048;-1.928;2022-10-16T07:33:45;11.02;;;4.05;;
45049;SDS011;61798;48.048;-1.928;2022-10-16T07:35:54;8.95;;;3.90;;
45049;SDS011;61798;48.048;-1.928;2022-10-16T07:38:00;5.07;;;3.50;;
45049;SDS011;61798;48.048;-1.928;2022-10-16T07:40:08;15.07;;;3.97;;
45049;SDS011;61798;48.048;-1.928;2022-10-16T07:42:15;5.53;;;3.10;;
45049;SDS011;61798;48.048;-1.928;2022-10-16T07:44:23;6.25;;;2.83;;
45049;SDS011;61798;48.048;-1.928;2022-10-16T07:46:30;6.43;;;3.10;;
45049;SDS011;61798;48.048;-1.928;2022-10-16T07:48:38;7.32;;;3.13;;
45049;SDS011;61798;48.048;-1.928;2022-10-16T07:50:44;6.53;;;2.78;;
45049;SDS011;61798;48.048;-1.928;2022-10-16T07:52:55;5.07;;;2.38;;
45049;SDS011;61798;48.048;-1.928;2022-10-16T07:55:06;3.08;;;1.92;;
45049;SDS011;61798;48.048;-1.928;2022-10-16T07:57:24;5.97;;;2.65;;
45049;SDS011;61798;48.048;-1.928;2022-10-16T07:59:31;5.80;;;2.22;;
45049;SDS011;61798;48.048;-1.928;2022-10-16T08:01:37;6.85;;;2.20;;
45049;SDS011;61798;48.048;-1.928;2022-10-16T08:03:46;6.55;;;2.38;;
45049;SDS011;61798;48.048;-1.928;2022-10-16T08:05:56;4.65;;;2.00;;
45049;SDS011;61798;48.048;-1.928;2022-10-16T08:08:15;3.42;;;2.03;;
45049;SDS011;61798;48.048;-1.928;2022-10-16T08:10:23;5.10;;;2.10;;
45049;SDS011;61798;48.048;-1.928;2022-10-16T08:12:34;4.10;;;1.70;;
45049;SDS011;61798;48.048;-1.928;2022-10-16T08:14:52;5.88;;;2.00;;
45049;SDS011;61798;48.048;-1.928;2022-10-16T08:17:04;6.93;;;2.45;;
45049;SDS011;61798;48.048;-1.928;2022-10-16T08:19:13;3.22;;;2.03;;
45049;SDS011;61798;48.048;-1.928;2022-10-16T08:21:22;5.30;;;1.98;;
45049;SDS011;61798;48.048;-1.928;2022-10-16T08:23:32;6.47;;;2.47;;
45049;SDS011;61798;48.048;-1.928;2022-10-16T08:25:39;4.30;;;2.33;;
45049;SDS011;61798;48.048;-1.928;2022-10-16T08:27:56;2.50;;;1.20;;
45049;SDS011;61798;48.048;-1.928;2022-10-16T08:30:06;4.57;;;1.15;;
45049;SDS011;61798;48.048;-1.928;2022-10-16T08:32:19;5.50;;;1.40;;
45049;SDS011;61798;48.048;-1.928;2022-10-16T08:34:31;3.80;;;1.30;;
45049;SDS011;61798;48.048;-1.928;2022-10-16T08:36:46;4.70;;;1.50;;
45049;SDS011;61798;48.048;-1.928;2022-10-16T08:38:58;3.85;;;1.58;;
45049;SDS011;61798;48.048;-1.928;2022-10-16T08:41:22;5.40;;;1.40;;
45049;SDS011;61798;48.048;-1.928;2022-10-16T08:48:41;4.10;;;1.33;;
45049;SDS011;61798;48.048;-1.928;2022-10-16T08:50:51;4.38;;;1.15;;
45049;SDS011;61798;48.048;-1.928;2022-10-16T08:52:58;3.97;;;1.35;;
45049;SDS011;61798;48.048;-1.928;2022-10-16T08:55:04;2.40;;;1.20;;
45049;SDS011;61798;48.048;-1.928;2022-10-16T08:57:11;2.25;;;0.98;;
45049;SDS011;61798;48.048;-1.928;2022-10-16T08:59:22;3.05;;;1.15;;
45049;SDS011;61798;48.048;-1.928;2022-10-16T09:01:39;4.57;;;0.98;;
45049;SDS011;61798;48.048;-1.928;2022-10-16T09:03:54;5.60;;;1.35;;
45049;SDS011;61798;48.048;-1.928;2022-10-16T09:11:21;6.43;;;1.17;;
45049;SDS011;61798;48.048;-1.928;2022-10-16T09:14:01;6.28;;;1.15;;
45049;SDS011;61798;48.048;-1.928;2022-10-16T09:18:47;5.85;;;1.35;;
45049;SDS011;61798;48.048;-1.928;2022-10-16T09:23:22;3.47;;;0.95;;
45049;SDS011;61798;48.048;-1.928;2022-10-16T09:25:32;4.15;;;0.80;;
45049;SDS011;61798;48.048;-1.928;2022-10-16T09:27:39;3.75;;;1.08;;
45049;SDS011;61798;48.048;-1.928;2022-10-16T09:29:45;5.57;;;0.90;;
45049;SDS011;61798;48.048;-1.928;2022-10-16T09:31:52;4.30;;;0.80;;
45049;SDS011;61798;48.048;-1.928;2022-10-16T09:34:00;3.05;;;1.55;;
45049;SDS011;61798;48.048;-1.928;2022-10-16T09:36:11;7.97;;;1.30;;
45049;SDS011;61798;48.048;-1.928;2022-10-16T09:38:23;7.57;;;1.45;;
45049;SDS011;61798;48.048;-1.928;2022-10-16T09:42:35;4.28;;;1.30;;
45049;SDS011;61798;48.048;-1.928;2022-10-16T09:44:42;5.13;;;1.52;;
45049;SDS011;61798;48.048;-1.928;2022-10-16T09:47:01;1.92;;;1.08;;
45049;SDS011;61798;48.048;-1.928;2022-10-16T09:49:22;4.28;;;1.15;;
45049;SDS011;61798;48.048;-1.928;2022-10-16T09:51:32;3.53;;;1.23;;
45049;SDS011;61798;48.048;-1.928;2022-10-16T09:53:42;3.20;;;1.30;;
45049;SDS011;61798;48.048;-1.928;2022-10-16T09:55:50;2.80;;;1.05;;
45049;SDS011;61798;48.048;-1.928;2022-10-16T09:57:59;7.80;;;3.33;;
45049;SDS011;61798;48.048;-1.928;2022-10-16T10:00:08;5.22;;;1.92;;
45049;SDS011;61798;48.048;-1.928;2022-10-16T10:02:15;6.47;;;2.40;;
45049;SDS011;61798;48.048;-1.928;2022-10-16T10:04:24;6.18;;;1.80;;
45049;SDS011;61798;48.048;-1.928;2022-10-16T10:06:36;5.57;;;1.35;;
45049;SDS011;61798;48.048;-1.928;2022-10-16T10:09:14;4.70;;;1.10;;
45049;SDS011;61798;48.048;-1.928;2022-10-16T10:11:36;3.50;;;1.40;;
45049;SDS011;61798;48.048;-1.928;2022-10-16T10:13:51;2.22;;;0.90;;
45049;SDS011;61798;48.048;-1.928;2022-10-16T10:15:58;2.65;;;0.90;;
45049;SDS011;61798;48.048;-1.928;2022-10-16T10:18:22;4.20;;;1.20;;
45049;SDS011;61798;48.048;-1.928;2022-10-16T10:20:33;1.60;;;0.90;;
45049;SDS011;61798;48.048;-1.928;2022-10-16T10:22:44;2.10;;;1.13;;
45049;SDS011;61798;48.048;-1.928;2022-10-16T10:27:32;2.78;;;0.90;;
45049;SDS011;61798;48.048;-1.928;2022-10-16T10:32:33;4.28;;;0.80;;
45049;SDS011;61798;48.048;-1.928;2022-10-16T10:34:57;4.95;;;0.77;;
45049;SDS011;61798;48.048;-1.928;2022-10-16T10:55:43;7.10;;;1.08;;
45049;SDS011;61798;48.048;-1.928;2022-10-16T11:07:54;5.50;;;1.30;;
45049;SDS011;61798;48.048;-1.928;2022-10-16T11:10:15;8.40;;;1.45;;
45049;SDS011;61798;48.048;-1.928;2022-10-16T11:12:44;11.70;;;1.75;;
45049;SDS011;61798;48.048;-1.928;2022-10-16T11:15:32;8.20;;;1.65;;
45049;SDS011;61798;48.048;-1.928;2022-10-16T11:20:19;6.03;;;2.05;;
45049;SDS011;61798;48.048;-1.928;2022-10-16T11:22:37;4.45;;;1.35;;
45049;SDS011;61798;48.048;-1.928;2022-10-16T11:27:39;4.30;;;1.20;;
45049;SDS011;61798;48.048;-1.928;2022-10-16T11:29:58;4.03;;;1.10;;
45049;SDS011;61798;48.048;-1.928;2022-10-16T11:32:14;3.10;;;0.93;;
45049;SDS011;61798;48.048;-1.928;2022-10-16T11:37:12;4.18;;;1.45;;
45049;SDS011;61798;48.048;-1.928;2022-10-16T11:39:24;3.80;;;1.27;;
45049;SDS011;61798;48.048;-1.928;2022-10-16T11:46:54;9.10;;;1.48;;
45049;SDS011;61798;48.048;-1.928;2022-10-16T11:49:16;6.68;;;1.60;;
45049;SDS011;61798;48.048;-1.928;2022-10-16T11:51:35;6.00;;;1.20;;
45049;SDS011;61798;48.048;-1.928;2022-10-16T11:53:46;3.90;;;1.20;;
45049;SDS011;61798;48.048;-1.928;2022-10-16T11:56:00;6.43;;;1.40;;
45049;SDS011;61798;48.048;-1.928;2022-10-16T11:58:27;4.03;;;1.27;;
45049;SDS011;61798;48.048;-1.928;2022-10-16T12:00:46;5.72;;;1.95;;
45049;SDS011;61798;48.048;-1.928;2022-10-16T12:03:04;4.57;;;1.50;;
45049;SDS011;61798;48.048;-1.928;2022-10-16T12:05:35;7.03;;;1.42;;
45049;SDS011;61798;48.048;-1.928;2022-10-16T12:08:10;3.95;;;1.75;;
45049;SDS011;61798;48.048;-1.928;2022-10-16T12:10:23;7.03;;;2.35;;
45049;SDS011;61798;48.048;-1.928;2022-10-16T12:14:42;3.88;;;1.50;;
45049;SDS011;61798;48.048;-1.928;2022-10-16T12:16:58;3.50;;;1.55;;
45049;SDS011;61798;48.048;-1.928;2022-10-16T12:19:14;3.97;;;1.50;;
45049;SDS011;61798;48.048;-1.928;2022-10-16T12:21:22;4.50;;;1.77;;
45049;SDS011;61798;48.048;-1.928;2022-10-16T12:23:39;8.38;;;1.73;;
45049;SDS011;61798;48.048;-1.928;2022-10-16T12:25:55;2.63;;;1.40;;
45049;SDS011;61798;48.048;-1.928;2022-10-16T12:28:19;3.58;;;1.58;;
45049;SDS011;61798;48.048;-1.928;2022-10-16T12:32:42;4.10;;;1.40;;
45049;SDS011;61798;48.048;-1.928;2022-10-16T12:34:49;3.10;;;1.52;;
45049;SDS011;61798;48.048;-1.928;2022-10-16T12:36:56;4.00;;;1.73;;
45049;SDS011;61798;48.048;-1.928;2022-10-16T12:39:25;5.03;;;1.70;;
45049;SDS011;61798;48.048;-1.928;2022-10-16T12:41:35;2.80;;;1.48;;
45049;SDS011;61798;48.048;-1.928;2022-10-16T12:43:46;7.25;;;2.58;;
45049;SDS011;61798;48.048;-1.928;2022-10-16T12:46:01;4.53;;;1.90;;
45049;SDS011;61798;48.048;-1.928;2022-10-16T12:48:28;3.15;;;1.25;;
45049;SDS011;61798;48.048;-1.928;2022-10-16T12:50:38;5.30;;;1.70;;
45049;SDS011;61798;48.048;-1.928;2022-10-16T12:52:47;6.50;;;1.70;;
45049;SDS011;61798;48.048;-1.928;2022-10-16T12:54:57;3.28;;;1.30;;
45049;SDS011;61798;48.048;-1.928;2022-10-16T13:05:15;2.45;;;1.10;;
45049;SDS011;61798;48.048;-1.928;2022-10-16T13:15:12;2.55;;;1.17;;
45049;SDS011;61798;48.048;-1.928;2022-10-16T13:20:35;2.90;;;1.58;;
45049;SDS011;61798;48.048;-1.928;2022-10-16T13:30:23;4.43;;;1.70;;
45049;SDS011;61798;48.048;-1.928;2022-10-16T13:32:30;8.82;;;1.85;;
45049;SDS011;61798;48.048;-1.928;2022-10-16T13:34:47;3.25;;;1.60;;
45049;SDS011;61798;48.048;-1.928;2022-10-16T13:36:54;3.25;;;1.60;;
45049;SDS011;61798;48.048;-1.928;2022-10-16T13:41:18;8.35;;;1.88;;
45049;SDS011;61798;48.048;-1.928;2022-10-16T13:45:55;5.15;;;2.13;;
45049;SDS011;61798;48.048;-1.928;2022-10-16T13:48:04;6.43;;;1.60;;
45049;SDS011;61798;48.048;-1.928;2022-10-16T13:50:17;5.03;;;1.60;;
45049;SDS011;61798;48.048;-1.928;2022-10-16T13:52:26;5.40;;;1.60;;
45049;SDS011;61798;48.048;-1.928;2022-10-16T13:54:36;5.97;;;1.98;;
45049;SDS011;61798;48.048;-1.928;2022-10-16T13:56:43;8.23;;;2.50;;
45049;SDS011;61798;48.048;-1.928;2022-10-16T13:59:03;4.10;;;1.70;;
45049;SDS011;61798;48.048;-1.928;2022-10-16T14:03:48;4.72;;;1.80;;
45049;SDS011;61798;48.048;-1.928;2022-10-16T14:06:00;6.03;;;2.30;;
45049;SDS011;61798;48.048;-1.928;2022-10-16T14:08:10;4.78;;;1.92;;
45049;SDS011;61798;48.048;-1.928;2022-10-16T14:10:27;8.82;;;2.47;;
45049;SDS011;61798;48.048;-1.928;2022-10-16T14:12:37;5.43;;;2.60;;
45049;SDS011;61798;48.048;-1.928;2022-10-16T14:14:44;5.03;;;2.30;;
45049;SDS011;61798;48.048;-1.928;2022-10-16T14:16:58;5.50;;;2.40;;
45049;SDS011;61798;48.048;-1.928;2022-10-16T14:19:05;3.38;;;2.45;;
45049;SDS011;61798;48.048;-1.928;2022-10-16T14:21:44;8.80;;;3.90;;
45049;SDS011;61798;48.048;-1.928;2022-10-16T14:23:51;7.55;;;3.72;;
45049;SDS011;61798;48.048;-1.928;2022-10-16T14:28:22;10.00;;;3.25;;
45049;SDS011;61798;48.048;-1.928;2022-10-16T14:30:29;7.50;;;3.15;;
45049;SDS011;61798;48.048;-1.928;2022-10-16T14:32:40;10.25;;;3.10;;
45049;SDS011;61798;48.048;-1.928;2022-10-16T14:34:53;5.25;;;2.78;;
45049;SDS011;61798;48.048;-1.928;2022-10-16T14:37:05;5.80;;;2.58;;
45049;SDS011;61798;48.048;-1.928;2022-10-16T14:39:22;4.57;;;2.63;;
45049;SDS011;61798;48.048;-1.928;2022-10-16T14:41:31;8.77;;;3.30;;
45049;SDS011;61798;48.048;-1.928;2022-10-16T14:43:42;4.05;;;3.15;;
45049;SDS011;61798;48.048;-1.928;2022-10-16T14:45:53;5.63;;;3.00;;
45049;SDS011;61798;48.048;-1.928;2022-10-16T14:48:05;6.75;;;3.70;;
45049;SDS011;61798;48.048;-1.928;2022-10-16T14:50:23;5.13;;;3.35;;
45049;SDS011;61798;48.048;-1.928;2022-10-16T14:52:31;5.00;;;3.60;;